Alpine Mystery — VRFP2 — position and weather

sailwx.info

Track history (hours):
 
Tides and Currents Weather Stations Pressure Air Temp Water Temp Dewpoint Dewpoint Depression Visibility Wind Speed Wind Dir Waves Ship Positions

Alpine Mystery

Last reported at 2018-Jun-27 23:14 UTC. Time now 2018-Aug-15 03:00 UTC.
Position N 28°57' W 094°34'.
Warning: this ship's position is 48 days out of date.

Length 183 m; draft 10.4 m.

Type: Tanker. MMSI: 477595800.

Date/timePositionNaut miles runAvg speedWind from/ knotsBaromVisibWave heightAir tempDewpointWater temp
2018-Jun-27 23:14N 28°57' W 094°34'512.6
2018-Jun-27 22:52N 29°01' W 094°36'811.8
2018-Jun-27 22:10N 29°10' W 094°37'212.2
2018-Jun-27 22:00N 29°12' W 094°37'3 5.9
2018-Jun-27 21:30N 29°14' W 094°37'0 0.2
2018-Jun-27 20:55N 29°14' W 094°36'0 0.0
2018-Jun-27 20:25N 29°14' W 094°36'0 0.0
2018-Jun-27 19:55N 29°14' W 094°36'0 0.0
2018-Jun-27 19:25N 29°14' W 094°36'0 0.0
2018-Jun-27 18:55N 29°14' W 094°36'0 0.0
2018-Jun-27 18:25N 29°14' W 094°36'0 0.0
2018-Jun-27 17:58N 29°14' W 094°36'0 0.0
2018-Jun-27 17:28N 29°14' W 094°36'0 0.0
2018-Jun-27 15:16N 29°15' W 094°36'0 0.0
2018-Jun-27 14:58N 29°15' W 094°36'0 0.0
2018-Jun-27 14:28N 29°15' W 094°36'0 0.0
2018-Jun-27 13:58N 29°15' W 094°36'0 0.0
2018-Jun-27 13:16N 29°15' W 094°36'0 0.0
2018-Jun-27 12:58N 29°15' W 094°36'1 0.7
2018-Jun-27 11:30N 29°15' W 094°36'11 9.1
2018-Jun-27 10:19N 29°21' W 094°47'3 9.8
2018-Jun-27 09:59N 29°22' W 094°50'3 0.1
2018-Jun-26 01:37N 29°22' W 094°53'0 0.0
2018-Jun-26 01:26N 29°22' W 094°53'0 0.0
2018-Jun-26 00:59N 29°22' W 094°53'0 0.0
2018-Jun-26 00:28N 29°22' W 094°53'0 0.0
2018-Jun-25 23:56N 29°22' W 094°53'0 0.0
2018-Jun-25 23:29N 29°22' W 094°53'0 0.0
2018-Jun-25 22:55N 29°22' W 094°53'0 0.0
2018-Jun-25 22:03N 29°22' W 094°53'0 0.1
2018-Jun-25 22:00N 29°22' W 094°53'0 0.0
2018-Jun-25 21:23N 29°22' W 094°53'0 0.0
2018-Jun-25 20:58N 29°22' W 094°53'0 0.0
2018-Jun-25 19:54N 29°22' W 094°53'0 0.0
2018-Jun-25 18:25N 29°22' W 094°53'0 0.0
2018-Jun-25 14:29N 29°22' W 094°53'0 0.0
2018-Jun-25 14:00N 29°22' W 094°53'0 0.0
2018-Jun-25 13:30N 29°22' W 094°53'0 0.0
2018-Jun-25 12:58N 29°22' W 094°53'0 0.0
2018-Jun-25 12:29N 29°22' W 094°53'0 0.0
2018-Jun-25 11:59N 29°22' W 094°53'0 0.0
2018-Jun-25 11:29N 29°22' W 094°53'0 0.0
2018-Jun-25 11:00N 29°22' W 094°53'0 0.0
2018-Jun-25 10:27N 29°22' W 094°53'0 0.0
2018-Jun-25 09:59N 29°22' W 094°53'0 0.0
2018-Jun-25 09:28N 29°22' W 094°53'0 0.0
2018-Jun-25 08:58N 29°22' W 094°53'0 0.0
2018-Jun-25 08:30N 29°22' W 094°53'0 0.0
2018-Jun-25 07:50N 29°22' W 094°53'0 0.0
2018-Jun-25 07:30N 29°22' W 094°53'0 0.0
2018-Jun-25 06:18N 29°22' W 094°53'0 0.0
2018-Jun-25 05:58N 29°22' W 094°53'0 0.0
2018-Jun-25 05:30N 29°22' W 094°53'0 0.0
2018-Jun-25 05:00N 29°22' W 094°53'0 0.0
2018-Jun-25 04:30N 29°22' W 094°53'0 0.0
2018-Jun-25 03:59N 29°22' W 094°53'0 0.0
2018-Jun-25 03:30N 29°22' W 094°53'0 0.0
2018-Jun-25 03:00N 29°22' W 094°53'0 0.5
2018-Jun-25 02:30N 29°22' W 094°53'2 3.9
2018-Jun-25 02:00N 29°22' W 094°51'5 9.2
2018-Jun-25 01:30N 29°21' W 094°46'611.3
2018-Jun-25 01:00N 29°20' W 094°40'611.1
2018-Jun-25 00:25N 29°17' W 094°33'2 0.1
2018-Jun-23 20:09N 29°16' W 094°31'0 0.0
2018-Jun-23 19:57N 29°16' W 094°31'0 0.0
2018-Jun-23 19:15N 29°16' W 094°31'0 0.0
2018-Jun-23 18:57N 29°16' W 094°31'0 0.0
2018-Jun-23 17:15N 29°16' W 094°31'0 0.0
2018-Jun-23 16:54N 29°16' W 094°31'0 0.0
2018-Jun-23 15:48N 29°16' W 094°31'0 0.0
2018-Jun-23 15:15N 29°16' W 094°31'0 0.0
2018-Jun-23 14:48N 29°16' W 094°31'0 0.0
2018-Jun-23 14:27N 29°16' W 094°31'0 0.0
2018-Jun-23 13:51N 29°16' W 094°31'0 0.0
2018-Jun-23 09:51N 29°16' W 094°31'0 0.0
2018-Jun-23 09:15N 29°16' W 094°31'0 0.0
2018-Jun-23 08:45N 29°16' W 094°31'0 0.0
2018-Jun-23 05:21N 29°16' W 094°31'0 0.0
2018-Jun-23 04:57N 29°16' W 094°31'0 0.0
2018-Jun-23 04:30N 29°16' W 094°31'0 0.0
2018-Jun-23 04:00N 29°16' W 094°31'0 0.0
2018-Jun-23 03:30N 29°16' W 094°31'0 0.0
2018-Jun-23 02:57N 29°16' W 094°31'0 0.0
2018-Jun-23 02:30N 29°16' W 094°31'0 0.0
2018-Jun-23 01:57N 29°16' W 094°31'0 0.0
2018-Jun-23 01:12N 29°16' W 094°31'0 0.0
2018-Jun-23 00:57N 29°16' W 094°31'0 0.0
2018-Jun-22 22:09N 29°16' W 094°31'0 0.0
2018-Jun-22 22:00N 29°16' W 094°31'0 0.0
2018-Jun-22 20:39N 29°16' W 094°31'0 0.3
2018-Jun-22 20:25N 29°16' W 094°31'2 3.5
2018-Jun-22 19:55N 29°16' W 094°33'610.2
2018-Jun-22 19:20N 29°19' W 094°39'512.1
2018-Jun-22 18:56N 29°21' W 094°44'1 1.4
2018-Jun-22 18:29N 29°21' W 094°45'0 0.0
2018-Jun-22 17:59N 29°21' W 094°45'0 0.0
2018-Jun-22 17:29N 29°21' W 094°45'0 0.0
2018-Jun-22 16:59N 29°21' W 094°45'0 0.0
2018-Jun-22 16:29N 29°21' W 094°45'0 0.1
2018-Jun-22 15:59N 29°21' W 094°45'0 0.0
2018-Jun-22 15:26N 29°21' W 094°45'0 0.0
2018-Jun-22 14:59N 29°21' W 094°45'0 0.0
2018-Jun-22 14:29N 29°21' W 094°45'0 0.0
2018-Jun-22 13:59N 29°21' W 094°45'0 0.0
2018-Jun-22 13:29N 29°21' W 094°45'0 0.0
2018-Jun-22 12:59N 29°21' W 094°45'0 0.2
2018-Jun-22 12:29N 29°21' W 094°45'0 0.1
2018-Jun-22 11:56N 29°21' W 094°45'0 0.0
2018-Jun-22 09:47N 29°21' W 094°45'0 0.0
2018-Jun-22 09:26N 29°21' W 094°45'0 0.1
2018-Jun-22 08:50N 29°21' W 094°45'0 0.2
2018-Jun-22 08:29N 29°21' W 094°45'0 0.0
2018-Jun-22 07:59N 29°21' W 094°45'0 0.1
2018-Jun-22 07:23N 29°21' W 094°45'0 0.0
2018-Jun-22 06:59N 29°21' W 094°45'0 0.0
2018-Jun-22 06:29N 29°21' W 094°45'0 0.1
2018-Jun-22 05:59N 29°21' W 094°45'0 0.2
2018-Jun-22 05:29N 29°21' W 094°45'0 0.1
2018-Jun-22 04:59N 29°21' W 094°45'0 0.1
2018-Jun-22 04:23N 29°21' W 094°44'0 0.0
2018-Jun-22 03:29N 29°21' W 094°44'0 0.0
2018-Jun-22 02:59N 29°21' W 094°44'0 0.0
2018-Jun-22 02:29N 29°21' W 094°44'0 0.0
2018-Jun-22 01:53N 29°21' W 094°44'0 0.0
2018-Jun-22 01:29N 29°21' W 094°44'0 0.0
2018-Jun-22 00:59N 29°21' W 094°44'0 0.0
2018-Jun-22 00:29N 29°21' W 094°44'0 0.1
2018-Jun-21 23:56N 29°21' W 094°44'0 0.1
2018-Jun-21 23:23N 29°21' W 094°44'0 0.0
2018-Jun-21 22:59N 29°21' W 094°44'0 0.0
2018-Jun-21 22:29N 29°21' W 094°44'0 0.0
2018-Jun-21 21:59N 29°21' W 094°44'0 0.3
2018-Jun-21 21:29N 29°21' W 094°45'0 0.1
2018-Jun-21 20:56N 29°21' W 094°45'0 0.2
2018-Jun-21 20:29N 29°21' W 094°45'1 2.6
2018-Jun-21 20:00N 29°21' W 094°43'611.9
2018-Jun-21 19:30N 29°18' W 094°37'611.5
2018-Jun-21 19:00N 29°16' W 094°31'3 5.0
2018-Jun-21 18:28N 29°17' W 094°29'0 0.0
2018-Jun-21 11:24N 29°17' W 094°29'0 0.0
2018-Jun-21 07:29N 29°17' W 094°29'1 2.5
2018-Jun-21 07:00N 29°17' W 094°30'4 8.5
2018-Jun-21 06:30N 29°16' W 094°35'612.2
2018-Jun-21 06:00N 29°20' W 094°41'713.0
2018-Jun-21 05:30N 29°22' W 094°48'713.0
2018-Jun-21 05:00N 29°28' W 094°51'612.6
2018-Jun-21 04:30N 29°33' W 094°55'611.5
2018-Jun-21 04:01N 29°38' W 094°58'610.5
2018-Jun-21 03:28N 29°43' W 095°01'5 5.9
2018-Jun-21 02:39N 29°44' W 095°07'4 0.2
2018-Jun-20 03:29N 29°44' W 095°02'4 8.3
2018-Jun-20 03:00N 29°41' W 094°59'611.3
2018-Jun-20 02:30N 29°35' W 094°56'612.5
2018-Jun-20 02:00N 29°30' W 094°52'612.4
2018-Jun-20 01:30N 29°25' W 094°49'611.2
2018-Jun-20 01:00N 29°21' W 094°45'612.4
2018-Jun-20 00:30N 29°19' W 094°38'5 9.9
2018-Jun-20 00:00N 29°17' W 094°33'4 4.4
2018-Jun-19 23:03N 29°16' W 094°28'0 0.0
2018-Jun-19 22:54N 29°16' W 094°28'0 0.0
2018-Jun-19 22:21N 29°16' W 094°28'0 0.0
2018-Jun-19 22:00N 29°16' W 094°28'0 0.0
2018-Jun-19 19:18N 29°16' W 094°28'0 0.0
2018-Jun-19 19:00N 29°16' W 094°28'0 0.0
2018-Jun-19 18:21N 29°16' W 094°28'0 0.0
2018-Jun-18 14:24N 29°16' W 094°28'  
Track history (hours):
 
Tides and Currents Weather Stations Pressure Air Temp Water Temp Dewpoint Dewpoint Depression Visibility Wind Speed Wind Dir Waves Ship Positions

Alpine Mystery

Last reported at 2018-Jun-27 23:14 UTC. Time now 2018-Aug-15 03:00 UTC.
Position N 28°57' W 094°34'.
Warning: this ship's position is 48 days out of date.

Length 183 m; draft 10.4 m.

Type: Tanker. MMSI: 477595800.

Date/timePositionNaut miles runAvg speedWind from/ knotsBaromVisibWave heightAir tempDewpointWater temp
2018-Jun-27 23:14N 28°57' W 094°34'512.6
2018-Jun-27 22:52N 29°01' W 094°36'811.8
2018-Jun-27 22:10N 29°10' W 094°37'212.2
2018-Jun-27 22:00N 29°12' W 094°37'3 5.9
2018-Jun-27 21:30N 29°14' W 094°37'0 0.2
2018-Jun-27 20:55N 29°14' W 094°36'0 0.0
2018-Jun-27 20:25N 29°14' W 094°36'0 0.0
2018-Jun-27 19:55N 29°14' W 094°36'0 0.0
2018-Jun-27 19:25N 29°14' W 094°36'0 0.0
2018-Jun-27 18:55N 29°14' W 094°36'0 0.0
2018-Jun-27 18:25N 29°14' W 094°36'0 0.0
2018-Jun-27 17:58N 29°14' W 094°36'0 0.0
2018-Jun-27 17:28N 29°14' W 094°36'0 0.0
2018-Jun-27 15:16N 29°15' W 094°36'0 0.0
2018-Jun-27 14:58N 29°15' W 094°36'0 0.0
2018-Jun-27 14:28N 29°15' W 094°36'0 0.0
2018-Jun-27 13:58N 29°15' W 094°36'0 0.0
2018-Jun-27 13:16N 29°15' W 094°36'0 0.0
2018-Jun-27 12:58N 29°15' W 094°36'1 0.7
2018-Jun-27 11:30N 29°15' W 094°36'11 9.1
2018-Jun-27 10:19N 29°21' W 094°47'3 9.8
2018-Jun-27 09:59N 29°22' W 094°50'3 0.1
2018-Jun-26 01:37N 29°22' W 094°53'0 0.0
2018-Jun-26 01:26N 29°22' W 094°53'0 0.0
2018-Jun-26 00:59N 29°22' W 094°53'0 0.0
2018-Jun-26 00:28N 29°22' W 094°53'0 0.0
2018-Jun-25 23:56N 29°22' W 094°53'0 0.0
2018-Jun-25 23:29N 29°22' W 094°53'0 0.0
2018-Jun-25 22:55N 29°22' W 094°53'0 0.0
2018-Jun-25 22:03N 29°22' W 094°53'0 0.1
2018-Jun-25 22:00N 29°22' W 094°53'0 0.0
2018-Jun-25 21:23N 29°22' W 094°53'0 0.0
2018-Jun-25 20:58N 29°22' W 094°53'0 0.0
2018-Jun-25 19:54N 29°22' W 094°53'0 0.0
2018-Jun-25 18:25N 29°22' W 094°53'0 0.0
2018-Jun-25 14:29N 29°22' W 094°53'0 0.0
2018-Jun-25 14:00N 29°22' W 094°53'0 0.0
2018-Jun-25 13:30N 29°22' W 094°53'0 0.0
2018-Jun-25 12:58N 29°22' W 094°53'0 0.0
2018-Jun-25 12:29N 29°22' W 094°53'0 0.0
2018-Jun-25 11:59N 29°22' W 094°53'0 0.0
2018-Jun-25 11:29N 29°22' W 094°53'0 0.0
2018-Jun-25 11:00N 29°22' W 094°53'0 0.0
2018-Jun-25 10:27N 29°22' W 094°53'0 0.0
2018-Jun-25 09:59N 29°22' W 094°53'0 0.0
2018-Jun-25 09:28N 29°22' W 094°53'0 0.0
2018-Jun-25 08:58N 29°22' W 094°53'0 0.0
2018-Jun-25 08:30N 29°22' W 094°53'0 0.0
2018-Jun-25 07:50N 29°22' W 094°53'0 0.0
2018-Jun-25 07:30N 29°22' W 094°53'0 0.0
2018-Jun-25 06:18N 29°22' W 094°53'0 0.0
2018-Jun-25 05:58N 29°22' W 094°53'0 0.0
2018-Jun-25 05:30N 29°22' W 094°53'0 0.0
2018-Jun-25 05:00N 29°22' W 094°53'0 0.0
2018-Jun-25 04:30N 29°22' W 094°53'0 0.0
2018-Jun-25 03:59N 29°22' W 094°53'0 0.0
2018-Jun-25 03:30N 29°22' W 094°53'0 0.0
2018-Jun-25 03:00N 29°22' W 094°53'0 0.5
2018-Jun-25 02:30N 29°22' W 094°53'2 3.9
2018-Jun-25 02:00N 29°22' W 094°51'5 9.2
2018-Jun-25 01:30N 29°21' W 094°46'611.3
2018-Jun-25 01:00N 29°20' W 094°40'611.1
2018-Jun-25 00:25N 29°17' W 094°33'2 0.1
2018-Jun-23 20:09N 29°16' W 094°31'0 0.0
2018-Jun-23 19:57N 29°16' W 094°31'0 0.0
2018-Jun-23 19:15N 29°16' W 094°31'0 0.0
2018-Jun-23 18:57N 29°16' W 094°31'0 0.0
2018-Jun-23 17:15N 29°16' W 094°31'0 0.0
2018-Jun-23 16:54N 29°16' W 094°31'0 0.0
2018-Jun-23 15:48N 29°16' W 094°31'0 0.0
2018-Jun-23 15:15N 29°16' W 094°31'0 0.0
2018-Jun-23 14:48N 29°16' W 094°31'0 0.0
2018-Jun-23 14:27N 29°16' W 094°31'0 0.0
2018-Jun-23 13:51N 29°16' W 094°31'0 0.0
2018-Jun-23 09:51N 29°16' W 094°31'0 0.0
2018-Jun-23 09:15N 29°16' W 094°31'0 0.0
2018-Jun-23 08:45N 29°16' W 094°31'0 0.0
2018-Jun-23 05:21N 29°16' W 094°31'0 0.0
2018-Jun-23 04:57N 29°16' W 094°31'0 0.0
2018-Jun-23 04:30N 29°16' W 094°31'0 0.0
2018-Jun-23 04:00N 29°16' W 094°31'0 0.0
2018-Jun-23 03:30N 29°16' W 094°31'0 0.0
2018-Jun-23 02:57N 29°16' W 094°31'0 0.0
2018-Jun-23 02:30N 29°16' W 094°31'0 0.0
2018-Jun-23 01:57N 29°16' W 094°31'0 0.0
2018-Jun-23 01:12N 29°16' W 094°31'0 0.0
2018-Jun-23 00:57N 29°16' W 094°31'0 0.0
2018-Jun-22 22:09N 29°16' W 094°31'0 0.0
2018-Jun-22 22:00N 29°16' W 094°31'0 0.0
2018-Jun-22 20:39N 29°16' W 094°31'0 0.3
2018-Jun-22 20:25N 29°16' W 094°31'2 3.5
2018-Jun-22 19:55N 29°16' W 094°33'610.2
2018-Jun-22 19:20N 29°19' W 094°39'512.1
2018-Jun-22 18:56N 29°21' W 094°44'1 1.4
2018-Jun-22 18:29N 29°21' W 094°45'0 0.0
2018-Jun-22 17:59N 29°21' W 094°45'0 0.0
2018-Jun-22 17:29N 29°21' W 094°45'0 0.0
2018-Jun-22 16:59N 29°21' W 094°45'0 0.0
2018-Jun-22 16:29N 29°21' W 094°45'0 0.1
2018-Jun-22 15:59N 29°21' W 094°45'0 0.0
2018-Jun-22 15:26N 29°21' W 094°45'0 0.0
2018-Jun-22 14:59N 29°21' W 094°45'0 0.0
2018-Jun-22 14:29N 29°21' W 094°45'0 0.0
2018-Jun-22 13:59N 29°21' W 094°45'0 0.0
2018-Jun-22 13:29N 29°21' W 094°45'0 0.0
2018-Jun-22 12:59N 29°21' W 094°45'0 0.2
2018-Jun-22 12:29N 29°21' W 094°45'0 0.1
2018-Jun-22 11:56N 29°21' W 094°45'0 0.0
2018-Jun-22 09:47N 29°21' W 094°45'0 0.0
2018-Jun-22 09:26N 29°21' W 094°45'0 0.1
2018-Jun-22 08:50N 29°21' W 094°45'0 0.2
2018-Jun-22 08:29N 29°21' W 094°45'0 0.0
2018-Jun-22 07:59N 29°21' W 094°45'0 0.1
2018-Jun-22 07:23N 29°21' W 094°45'0 0.0
2018-Jun-22 06:59N 29°21' W 094°45'0 0.0
2018-Jun-22 06:29N 29°21' W 094°45'0 0.1
2018-Jun-22 05:59N 29°21' W 094°45'0 0.2
2018-Jun-22 05:29N 29°21' W 094°45'0 0.1
2018-Jun-22 04:59N 29°21' W 094°45'0 0.1
2018-Jun-22 04:23N 29°21' W 094°44'0 0.0
2018-Jun-22 03:29N 29°21' W 094°44'0 0.0
2018-Jun-22 02:59N 29°21' W 094°44'0 0.0
2018-Jun-22 02:29N 29°21' W 094°44'0 0.0
2018-Jun-22 01:53N 29°21' W 094°44'0 0.0
2018-Jun-22 01:29N 29°21' W 094°44'0 0.0
2018-Jun-22 00:59N 29°21' W 094°44'0 0.0
2018-Jun-22 00:29N 29°21' W 094°44'0 0.1
2018-Jun-21 23:56N 29°21' W 094°44'0 0.1
2018-Jun-21 23:23N 29°21' W 094°44'0 0.0
2018-Jun-21 22:59N 29°21' W 094°44'0 0.0
2018-Jun-21 22:29N 29°21' W 094°44'0 0.0
2018-Jun-21 21:59N 29°21' W 094°44'0 0.3
2018-Jun-21 21:29N 29°21' W 094°45'0 0.1
2018-Jun-21 20:56N 29°21' W 094°45'0 0.2
2018-Jun-21 20:29N 29°21' W 094°45'1 2.6
2018-Jun-21 20:00N 29°21' W 094°43'611.9
2018-Jun-21 19:30N 29°18' W 094°37'611.5
2018-Jun-21 19:00N 29°16' W 094°31'3 5.0
2018-Jun-21 18:28N 29°17' W 094°29'0 0.0
2018-Jun-21 11:24N 29°17' W 094°29'0 0.0
2018-Jun-21 07:29N 29°17' W 094°29'1 2.5
2018-Jun-21 07:00N 29°17' W 094°30'4 8.5
2018-Jun-21 06:30N 29°16' W 094°35'612.2
2018-Jun-21 06:00N 29°20' W 094°41'713.0
2018-Jun-21 05:30N 29°22' W 094°48'713.0
2018-Jun-21 05:00N 29°28' W 094°51'612.6
2018-Jun-21 04:30N 29°33' W 094°55'611.5
2018-Jun-21 04:01N 29°38' W 094°58'610.5
2018-Jun-21 03:28N 29°43' W 095°01'5 5.9
2018-Jun-21 02:39N 29°44' W 095°07'4 0.2
2018-Jun-20 03:29N 29°44' W 095°02'4 8.3
2018-Jun-20 03:00N 29°41' W 094°59'611.3
2018-Jun-20 02:30N 29°35' W 094°56'612.5
2018-Jun-20 02:00N 29°30' W 094°52'612.4
2018-Jun-20 01:30N 29°25' W 094°49'611.2
2018-Jun-20 01:00N 29°21' W 094°45'612.4
2018-Jun-20 00:30N 29°19' W 094°38'5 9.9
2018-Jun-20 00:00N 29°17' W 094°33'4 4.4
2018-Jun-19 23:03N 29°16' W 094°28'0 0.0
2018-Jun-19 22:54N 29°16' W 094°28'0 0.0
2018-Jun-19 22:21N 29°16' W 094°28'0 0.0
2018-Jun-19 22:00N 29°16' W 094°28'0 0.0
2018-Jun-19 19:18N 29°16' W 094°28'0 0.0
2018-Jun-19 19:00N 29°16' W 094°28'0 0.0
2018-Jun-19 18:21N 29°16' W 094°28'0 0.0
2018-Jun-18 14:24N 29°16' W 094°28'  

Dump ship's entire track history